createdAt,value
2017-11-16T00:00:24.534Z,10.10
2017-11-16T00:02:52.096Z,10.53
2017-11-16T00:05:19.674Z,9.83
2017-11-16T00:07:48.083Z,10.00
2017-11-16T00:10:15.814Z,11.20
2017-11-16T00:12:44.187Z,9.67
2017-11-16T00:15:12.528Z,10.27
2017-11-16T00:17:40.083Z,9.60
2017-11-16T00:20:07.805Z,10.20
2017-11-16T00:22:36.139Z,11.20
2017-11-16T00:25:03.751Z,12.77
2017-11-16T00:27:32.094Z,12.63
2017-11-16T00:29:59.753Z,11.97
2017-11-16T00:45:27.434Z,12.00
2017-11-16T00:47:55.806Z,12.63
2017-11-16T00:50:23.510Z,11.97
2017-11-16T00:52:51.167Z,11.50
2017-11-16T00:55:19.671Z,12.73
2017-11-16T00:57:47.273Z,11.40
2017-11-16T01:00:14.840Z,11.73
2017-11-16T01:15:42.466Z,12.03
2017-11-16T01:18:10.061Z,12.90
2017-11-16T01:20:38.401Z,11.23
2017-11-16T01:23:06.010Z,11.60
2017-11-16T01:25:33.596Z,12.70
2017-11-16T01:28:01.221Z,11.77
2017-11-16T01:30:29.560Z,12.10
2017-11-16T01:32:57.180Z,12.00
2017-11-16T01:35:24.760Z,12.17
2017-11-16T01:37:52.344Z,12.20
2017-11-16T01:40:19.940Z,11.37
2017-11-16T01:42:48.294Z,11.10
2017-11-16T01:45:15.891Z,13.13
2017-11-16T01:47:44.272Z,11.20
2017-11-16T01:50:12.628Z,11.90
2017-11-16T01:52:40.232Z,12.90
2017-11-16T01:55:07.859Z,11.57
2017-11-16T01:57:37.240Z,11.27
2017-11-16T02:00:04.834Z,11.70
2017-11-16T02:02:40.114Z,12.10
2017-11-16T02:05:07.696Z,12.40
2017-11-16T02:07:35.294Z,10.67
2017-11-16T02:10:03.741Z,12.30
2017-11-16T02:12:31.299Z,13.87
2017-11-16T02:14:58.888Z,13.10
2017-11-16T02:17:26.482Z,12.63
2017-11-16T02:19:54.071Z,11.83
2017-11-16T02:22:21.676Z,12.50
2017-11-16T02:24:50.032Z,13.23
2017-11-16T02:27:17.604Z,11.13
2017-11-16T02:29:45.182Z,12.17
2017-11-16T02:32:13.538Z,10.97
2017-11-16T02:34:41.350Z,13.27
2017-11-16T02:37:09.256Z,11.93
2017-11-16T02:39:36.810Z,11.43
2017-11-16T02:42:04.365Z,12.27
2017-11-16T02:44:31.924Z,12.73
2017-11-16T02:46:59.639Z,10.47
2017-11-16T02:49:27.963Z,11.80
2017-11-16T02:51:55.526Z,11.23
2017-11-16T02:54:23.087Z,11.67
2017-11-16T02:56:50.677Z,11.70
2017-11-16T02:59:18.263Z,10.70
2017-11-16T03:01:45.825Z,10.53
2017-11-16T03:04:13.371Z,11.73
2017-11-16T03:06:40.995Z,12.63
2017-11-16T03:09:08.578Z,11.80
2017-11-16T03:11:36.195Z,11.93
2017-11-16T03:14:03.764Z,10.77
2017-11-16T03:16:31.340Z,11.90
2017-11-16T03:18:58.918Z,12.50
2017-11-16T03:21:26.535Z,11.80
2017-11-16T03:23:54.107Z,11.60
2017-11-16T03:26:21.764Z,12.13
2017-11-16T03:28:49.339Z,12.57
2017-11-16T03:31:16.984Z,11.20
2017-11-16T03:33:44.652Z,11.57
2017-11-16T03:36:12.212Z,11.53
2017-11-16T03:38:39.792Z,11.57
2017-11-16T03:41:07.355Z,11.03
2017-11-16T03:43:34.936Z,11.57
2017-11-16T03:46:02.515Z,11.30
2017-11-16T03:48:30.139Z,12.90
2017-11-16T03:50:57.722Z,11.83
2017-11-16T03:53:25.297Z,12.50
2017-11-16T03:55:52.887Z,11.90
2017-11-16T03:58:21.220Z,10.67
2017-11-16T04:00:48.832Z,11.13
2017-11-16T04:03:16.400Z,11.03
2017-11-16T04:05:44.008Z,10.67
2017-11-16T04:08:11.601Z,10.83
2017-11-16T04:10:39.916Z,11.43
2017-11-16T04:13:07.606Z,11.40
2017-11-16T04:15:35.197Z,10.97
2017-11-16T04:18:03.533Z,11.60
2017-11-16T04:20:31.100Z,13.17
2017-11-16T04:22:58.798Z,12.00
2017-11-16T04:25:27.153Z,10.43
2017-11-16T04:27:54.743Z,11.43
2017-11-16T04:30:23.120Z,11.30
2017-11-16T04:32:51.452Z,11.20
2017-11-16T04:35:19.044Z,10.83
2017-11-16T04:37:46.594Z,10.63
2017-11-16T04:40:14.225Z,10.53
2017-11-16T04:42:41.899Z,10.40
2017-11-16T04:45:09.459Z,10.37
2017-11-16T04:47:37.043Z,10.20
2017-11-16T04:50:04.607Z,9.20
2017-11-16T04:52:32.182Z,10.10
2017-11-16T04:54:59.740Z,10.33
2017-11-16T04:57:27.347Z,9.13
2017-11-16T04:59:54.922Z,9.63
2017-11-16T05:02:22.614Z,16.17
2017-11-16T05:04:50.212Z,13.93
2017-11-16T05:07:18.536Z,11.50
2017-11-16T05:09:46.124Z,10.47
2017-11-16T05:12:13.701Z,11.57
2017-11-16T05:14:42.079Z,10.97
2017-11-16T05:17:10.450Z,9.67
2017-11-16T05:19:38.021Z,9.43
2017-11-16T05:22:06.373Z,9.87
2017-11-16T05:24:34.234Z,10.87
2017-11-16T05:27:01.795Z,10.00
2017-11-16T05:29:29.363Z,11.30
2017-11-16T05:31:56.939Z,10.60
2017-11-16T05:34:24.528Z,9.17
2017-11-16T05:36:52.110Z,9.77
2017-11-16T05:39:19.782Z,11.37
2017-11-16T05:41:47.355Z,9.93
2017-11-16T05:44:14.995Z,10.57
2017-11-16T05:46:42.564Z,10.27
2017-11-16T05:49:10.916Z,12.20
2017-11-16T05:51:38.491Z,10.80
2017-11-16T05:54:06.180Z,10.73
2017-11-16T05:56:33.734Z,8.90
2017-11-16T05:59:01.631Z,10.47
2017-11-16T06:01:29.194Z,10.13
2017-11-16T06:03:56.849Z,10.07
2017-11-16T06:06:24.460Z,10.50
2017-11-16T06:08:52.047Z,10.27
2017-11-16T06:11:19.643Z,9.53
2017-11-16T06:13:47.211Z,9.77
2017-11-16T06:16:15.608Z,9.30
2017-11-16T06:18:43.942Z,9.53
2017-11-16T06:21:11.500Z,8.60
2017-11-16T06:23:39.076Z,11.63
2017-11-16T06:26:06.656Z,9.00
2017-11-16T06:28:34.972Z,10.23
2017-11-16T06:31:02.553Z,10.27
2017-11-16T06:33:30.115Z,10.37
2017-11-16T06:35:57.722Z,10.63
2017-11-16T06:38:26.063Z,11.50
2017-11-16T06:40:53.614Z,10.50
2017-11-16T06:43:21.195Z,13.83
2017-11-16T06:45:48.772Z,11.40
2017-11-16T06:48:17.214Z,10.80
2017-11-16T06:50:49.990Z,14.40
2017-11-16T06:53:24.695Z,15.00
2017-11-16T06:55:54.228Z,15.30
2017-11-16T06:58:24.471Z,16.53
2017-11-16T07:00:52.272Z,11.40
2017-11-16T07:03:20.632Z,10.97
2017-11-16T07:05:48.279Z,11.13
2017-11-16T07:08:15.853Z,11.10
2017-11-16T07:10:43.410Z,11.90
2017-11-16T07:13:11.008Z,12.57
2017-11-16T07:15:38.582Z,12.73
2017-11-16T07:18:06.171Z,13.30
2017-11-16T07:20:43.421Z,16.23
2017-11-16T07:23:10.998Z,13.23
2017-11-16T07:25:38.619Z,13.80
2017-11-16T07:28:20.966Z,15.93
2017-11-16T07:33:22.715Z,14.03
2017-11-16T07:35:51.062Z,16.20
2017-11-16T07:38:20.345Z,13.67
2017-11-16T07:40:50.721Z,14.60
2017-11-16T07:43:19.056Z,14.30
2017-11-16T07:45:47.519Z,15.23
2017-11-16T07:48:15.128Z,14.10
2017-11-16T07:50:42.705Z,14.70
2017-11-16T07:53:11.050Z,14.33
2017-11-16T07:55:38.611Z,15.97
2017-11-16T07:58:06.367Z,15.30
2017-11-16T08:00:34.756Z,16.47
2017-11-16T08:03:02.332Z,16.00
2017-11-16T08:05:29.951Z,14.97
2017-11-16T08:07:57.514Z,15.93
2017-11-16T08:10:25.095Z,15.67
2017-11-16T08:12:52.681Z,15.07
2017-11-16T08:15:21.040Z,14.03
2017-11-16T08:17:48.608Z,14.67
2017-11-16T08:20:16.198Z,14.23
2017-11-16T08:22:44.523Z,14.60
2017-11-16T08:25:12.082Z,13.23
2017-11-16T08:27:39.932Z,15.63
2017-11-16T08:30:07.532Z,15.10
2017-11-16T08:32:35.101Z,15.60
2017-11-16T08:35:02.691Z,13.10
2017-11-16T08:37:31.083Z,13.73
2017-11-16T08:39:58.671Z,14.40
2017-11-16T08:42:26.306Z,14.50
2017-11-16T08:44:53.888Z,13.50
2017-11-16T08:47:21.447Z,13.60
2017-11-16T08:49:48.999Z,14.17
2017-11-16T08:52:16.564Z,13.50
2017-11-16T08:54:44.141Z,13.70
2017-11-16T08:57:11.677Z,15.40
2017-11-16T08:59:39.332Z,14.13
2017-11-16T09:02:06.887Z,14.10
2017-11-16T09:04:34.479Z,14.57
2017-11-16T09:07:02.150Z,16.10
2017-11-16T09:09:29.714Z,17.70
2017-11-16T09:11:57.279Z,14.83
2017-11-16T09:14:24.881Z,15.33
2017-11-16T09:16:53.438Z,15.33
2017-11-16T09:19:21.024Z,15.63
2017-11-16T09:21:49.394Z,15.03
2017-11-16T09:24:16.966Z,16.17
2017-11-16T09:26:45.281Z,16.30
2017-11-16T09:29:13.389Z,14.77
2017-11-16T09:31:40.973Z,17.40
2017-11-16T09:34:09.324Z,16.17
2017-11-16T09:36:36.933Z,15.13
2017-11-16T09:39:04.474Z,15.40
2017-11-16T09:41:32.821Z,16.83
2017-11-16T09:44:00.451Z,17.80
2017-11-16T09:46:28.792Z,19.47
2017-11-16T09:48:57.143Z,18.83
2017-11-16T09:51:24.727Z,17.80
2017-11-16T09:53:52.368Z,17.67
2017-11-16T09:56:20.101Z,17.00
2017-11-16T09:58:47.686Z,17.37
2017-11-16T10:01:15.263Z,15.73
2017-11-16T10:03:42.852Z,17.77
2017-11-16T10:06:11.198Z,18.03
2017-11-16T10:08:38.780Z,16.97
2017-11-16T10:11:06.587Z,16.70
2017-11-16T10:13:34.180Z,18.33
2017-11-16T10:16:01.763Z,16.60
2017-11-16T10:18:30.306Z,18.73
2017-11-16T10:20:57.896Z,16.70
2017-11-16T10:23:25.484Z,17.17
2017-11-16T10:25:53.801Z,15.03
2017-11-16T10:28:21.404Z,15.43
2017-11-16T10:30:48.986Z,18.47
2017-11-16T10:33:17.311Z,15.33
2017-11-16T10:35:44.912Z,16.27
2017-11-16T10:38:13.263Z,15.83
2017-11-16T10:40:40.869Z,16.03
2017-11-16T10:43:09.198Z,14.60
2017-11-16T10:45:36.795Z,15.10
2017-11-16T10:48:05.141Z,15.83
2017-11-16T10:50:32.758Z,13.87
2017-11-16T10:53:00.329Z,14.03
2017-11-16T10:55:27.965Z,13.13
2017-11-16T10:57:56.473Z,12.43
2017-11-16T11:00:24.043Z,13.70
2017-11-16T11:02:51.648Z,13.00
2017-11-16T11:05:19.209Z,13.47
2017-11-16T11:07:46.799Z,14.00
2017-11-16T11:10:14.363Z,13.30
2017-11-16T11:12:42.012Z,12.43
2017-11-16T11:15:10.375Z,14.20
2017-11-16T11:17:38.012Z,13.93
2017-11-16T11:20:05.735Z,13.33
2017-11-16T11:22:33.351Z,13.70
2017-11-16T11:25:00.971Z,12.80
2017-11-16T11:27:28.553Z,12.17
2017-11-16T11:29:56.894Z,12.23
2017-11-16T11:32:25.234Z,12.30
2017-11-16T11:34:52.838Z,11.37
2017-11-16T11:37:20.488Z,11.40
2017-11-16T11:39:48.846Z,13.17
2017-11-16T11:42:16.433Z,12.53
2017-11-16T11:44:44.031Z,12.50
2017-11-16T11:47:11.614Z,13.80
2017-11-16T11:49:39.251Z,12.40
2017-11-16T11:52:06.840Z,12.33
2017-11-16T11:54:34.414Z,12.47
2017-11-16T11:57:01.996Z,12.70
2017-11-16T11:59:30.343Z,14.70
2017-11-16T12:01:58.055Z,15.97
2017-11-16T12:04:25.690Z,15.10
2017-11-16T12:06:53.271Z,14.80
2017-11-16T12:09:21.667Z,15.10
2017-11-16T12:11:49.243Z,15.40
2017-11-16T12:14:16.848Z,15.27
2017-11-16T12:16:44.435Z,14.20
2017-11-16T12:19:12.040Z,12.97
2017-11-16T12:21:39.602Z,15.67
2017-11-16T12:24:07.189Z,14.30
2017-11-16T12:26:34.767Z,13.50
2017-11-16T12:29:03.132Z,14.33
2017-11-16T12:31:30.699Z,16.03
2017-11-16T12:33:58.302Z,14.80
2017-11-16T12:36:25.867Z,13.87
2017-11-16T12:38:53.459Z,15.10
2017-11-16T12:41:21.027Z,19.60
2017-11-16T12:43:48.615Z,15.13
2017-11-16T12:46:16.978Z,15.57
2017-11-16T12:49:07.691Z,16.60
2017-11-16T12:51:36.035Z,19.80
2017-11-16T12:54:03.624Z,16.00
2017-11-16T12:56:31.237Z,17.40
2017-11-16T12:58:58.839Z,17.30
2017-11-16T13:01:26.432Z,17.20
2017-11-16T13:03:54.158Z,17.20
2017-11-16T13:06:24.165Z,19.20
2017-11-16T13:08:51.777Z,18.33
2017-11-16T13:11:19.341Z,16.90
2017-11-16T13:13:46.936Z,16.47
2017-11-16T13:16:14.525Z,16.57
2017-11-16T13:18:42.127Z,16.47
2017-11-16T13:21:09.748Z,14.43
2017-11-16T13:23:37.354Z,15.73
2017-11-16T13:26:07.112Z,15.07
2017-11-16T13:28:34.682Z,16.80
2017-11-16T13:31:02.468Z,15.57
2017-11-16T13:33:30.834Z,13.80
2017-11-16T13:35:58.437Z,15.27
2017-11-16T13:38:26.041Z,15.00
2017-11-16T13:40:53.679Z,15.03
2017-11-16T13:43:21.254Z,15.00
2017-11-16T13:45:49.304Z,16.23
2017-11-16T13:48:16.939Z,14.80
2017-11-16T13:50:45.659Z,14.77
2017-11-16T13:53:14.038Z,15.00
2017-11-16T13:55:41.651Z,17.07
2017-11-16T13:58:10.019Z,15.53
2017-11-16T14:00:37.619Z,16.40
2017-11-16T14:03:05.221Z,15.43
2017-11-16T14:05:32.838Z,15.03
2017-11-16T14:08:00.481Z,14.57
2017-11-16T14:10:28.831Z,14.73
2017-11-16T14:12:56.443Z,14.00
2017-11-16T14:15:24.038Z,17.03
2017-11-16T14:17:52.411Z,14.40
2017-11-16T14:20:20.029Z,14.60
2017-11-16T14:22:48.377Z,14.33
2017-11-16T14:25:15.974Z,15.13
2017-11-16T14:27:44.303Z,14.87
2017-11-16T14:30:11.912Z,14.80
2017-11-16T14:32:40.261Z,14.83
2017-11-16T14:35:07.872Z,15.00
2017-11-16T14:37:35.466Z,14.33
2017-11-16T14:40:03.063Z,13.67
2017-11-16T14:42:30.672Z,15.40
2017-11-16T14:44:58.356Z,13.33
2017-11-16T14:47:25.958Z,13.20
2017-11-16T14:49:54.284Z,12.90
2017-11-16T14:52:21.894Z,13.00
2017-11-16T14:54:49.516Z,13.10
2017-11-16T14:57:17.088Z,14.33
2017-11-16T14:59:44.711Z,13.97
2017-11-16T15:02:12.319Z,12.77
2017-11-16T15:04:39.943Z,13.30
2017-11-16T15:07:07.540Z,13.87
2017-11-16T15:09:35.156Z,15.03
2017-11-16T15:12:02.720Z,13.70
2017-11-16T15:14:30.290Z,13.30
2017-11-16T15:16:58.664Z,13.43
2017-11-16T15:19:26.254Z,14.60
2017-11-16T15:21:53.908Z,13.33
2017-11-16T15:24:21.499Z,13.30
2017-11-16T15:26:49.112Z,13.63
2017-11-16T15:29:17.479Z,13.23
2017-11-16T15:31:45.070Z,13.20
2017-11-16T15:34:12.869Z,13.40
2017-11-16T15:36:40.464Z,13.73
2017-11-16T15:39:08.084Z,14.20
2017-11-16T15:41:35.682Z,14.23
2017-11-16T15:44:03.263Z,13.90
2017-11-16T15:46:30.854Z,13.53
2017-11-16T15:48:58.459Z,13.83
2017-11-16T15:51:26.816Z,14.40
2017-11-16T15:53:54.419Z,12.40
2017-11-16T15:56:21.997Z,13.90
2017-11-16T15:58:49.622Z,13.50
2017-11-16T16:01:18.005Z,14.33
2017-11-16T16:03:45.647Z,13.87
2017-11-16T16:06:14.040Z,14.50
2017-11-16T16:08:42.373Z,14.73
2017-11-16T16:11:09.981Z,14.50
2017-11-16T16:13:39.312Z,14.73
2017-11-16T16:29:06.954Z,14.73
2017-11-16T16:31:34.577Z,16.07
2017-11-16T16:34:02.148Z,15.53
2017-11-16T16:36:30.513Z,14.30
2017-11-16T16:38:58.148Z,14.33
2017-11-16T16:41:25.740Z,16.17
2017-11-16T16:43:53.335Z,16.77
2017-11-16T16:46:20.970Z,19.17
2017-11-16T16:48:49.396Z,18.43
2017-11-16T16:51:16.983Z,14.90
2017-11-16T16:53:45.487Z,15.80
2017-11-16T16:56:14.253Z,13.37
2017-11-16T16:58:41.828Z,14.93
2017-11-16T17:01:09.432Z,14.30
2017-11-16T17:03:38.766Z,13.57
2017-11-16T17:06:06.371Z,13.90
2017-11-16T17:08:33.943Z,13.77
2017-11-16T17:11:02.458Z,15.43
2017-11-16T17:13:30.052Z,14.40
2017-11-16T17:15:58.457Z,14.50
2017-11-16T17:18:26.056Z,14.20
2017-11-16T17:20:53.636Z,14.83
2017-11-16T17:23:22.057Z,14.43
2017-11-16T17:25:49.723Z,15.60
2017-11-16T17:28:22.380Z,15.67
2017-11-16T17:30:50.088Z,15.87
2017-11-16T17:33:17.719Z,17.20
2017-11-16T17:35:45.301Z,17.00
2017-11-16T17:38:13.714Z,16.70
2017-11-16T17:40:42.254Z,16.77
2017-11-16T17:43:09.900Z,16.73
2017-11-16T17:45:38.236Z,16.20
2017-11-16T17:48:06.677Z,16.60
2017-11-16T17:50:35.680Z,17.43
2017-11-16T17:53:04.092Z,16.97
2017-11-16T17:55:33.669Z,16.70
2017-11-16T17:58:01.541Z,17.20
2017-11-16T18:00:29.904Z,15.63
2017-11-16T18:02:58.050Z,15.80
2017-11-16T18:05:25.738Z,19.37
2017-11-16T18:07:53.345Z,17.70
2017-11-16T18:10:23.020Z,16.30
2017-11-16T18:12:51.463Z,17.53
2017-11-16T18:15:20.259Z,16.80
2017-11-16T18:17:47.872Z,17.77
2017-11-16T18:20:17.056Z,16.50
2017-11-16T18:22:48.443Z,17.07
2017-11-16T18:25:16.886Z,16.67
2017-11-16T18:27:46.019Z,17.00
2017-11-16T18:30:14.380Z,18.50
2017-11-16T18:32:42.000Z,20.30
2017-11-16T18:35:10.545Z,17.90
2017-11-16T18:37:38.980Z,19.40
2017-11-16T18:40:07.998Z,18.73
2017-11-16T18:42:38.962Z,17.87
2017-11-16T18:45:06.604Z,18.87
2017-11-16T18:47:36.213Z,19.70
2017-11-16T18:50:03.937Z,19.50
2017-11-16T18:52:31.582Z,18.53
2017-11-16T18:54:59.241Z,17.17
2017-11-16T18:57:26.816Z,17.57
2017-11-16T18:59:56.080Z,20.27
2017-11-16T19:02:23.684Z,20.17
2017-11-16T19:04:51.332Z,18.97
2017-11-16T19:07:19.033Z,22.23
2017-11-16T19:09:47.405Z,20.80
2017-11-16T19:12:15.796Z,21.87
2017-11-16T19:14:44.285Z,19.30
2017-11-16T19:17:12.622Z,19.60
2017-11-16T19:19:40.291Z,18.30
2017-11-16T19:22:07.934Z,19.93
2017-11-16T19:24:35.594Z,19.40
2017-11-16T19:27:05.772Z,19.17
2017-11-16T19:29:33.332Z,21.60
2017-11-16T19:32:01.716Z,17.30
2017-11-16T19:34:30.150Z,18.57
2017-11-16T19:36:58.650Z,19.00
2017-11-16T19:39:27.986Z,20.07
2017-11-16T19:41:56.906Z,18.57
2017-11-16T19:44:24.479Z,19.60
2017-11-16T19:46:52.138Z,17.50
2017-11-16T19:49:19.927Z,17.20
2017-11-16T19:51:48.397Z,18.93
2017-11-16T19:54:16.959Z,19.03
2017-11-16T19:56:44.567Z,20.63
2017-11-16T19:59:12.175Z,18.10
2017-11-16T20:01:40.657Z,18.00
2017-11-16T20:04:11.296Z,18.87
2017-11-16T20:06:46.511Z,21.60
2017-11-16T20:09:14.443Z,19.37
2017-11-16T20:11:43.884Z,19.37
2017-11-16T20:14:12.309Z,20.37
2017-11-16T20:16:39.996Z,21.40
2017-11-16T20:19:07.600Z,19.57
2017-11-16T20:21:37.029Z,21.87
2017-11-16T20:24:04.704Z,20.73
2017-11-16T20:26:32.391Z,20.13
2017-11-16T20:29:00.967Z,19.50
2017-11-16T20:31:28.619Z,20.23
2017-11-16T20:33:56.355Z,21.70
2017-11-16T20:36:24.842Z,20.93
2017-11-16T20:39:09.180Z,24.13
2017-11-16T20:41:51.744Z,23.03
2017-11-16T20:44:38.605Z,22.73
2017-11-16T20:47:14.357Z,19.63
2017-11-16T20:49:47.601Z,22.70
2017-11-16T20:52:15.305Z,20.33
2017-11-16T20:54:42.964Z,22.47
2017-11-16T20:57:11.546Z,22.27
2017-11-16T20:59:40.017Z,21.73
2017-11-16T21:02:08.370Z,21.07
2017-11-16T21:04:36.069Z,20.73
2017-11-16T21:07:03.783Z,22.07
2017-11-16T21:09:35.157Z,23.03
2017-11-16T21:12:02.761Z,24.23
2017-11-16T21:14:31.375Z,22.23
2017-11-16T21:17:00.008Z,22.90
2017-11-16T21:19:30.321Z,25.30
2017-11-16T21:21:59.945Z,23.70
2017-11-16T21:24:29.183Z,22.40
2017-11-16T21:26:56.864Z,25.10
2017-11-16T21:29:24.491Z,23.40
2017-11-16T21:31:52.940Z,26.70
2017-11-16T21:34:21.312Z,26.30
2017-11-16T21:36:49.689Z,23.30
2017-11-16T21:39:17.363Z,23.73
2017-11-16T21:41:45.811Z,23.23
2017-11-16T21:44:16.896Z,22.30
2017-11-16T21:46:44.539Z,21.43
2017-11-16T21:49:13.041Z,24.63
2017-11-16T21:51:41.399Z,24.27
2017-11-16T21:54:09.013Z,23.80
2017-11-16T21:56:36.632Z,22.57
2017-11-16T21:59:04.219Z,23.33
2017-11-16T22:01:32.704Z,23.70
2017-11-16T22:04:01.397Z,24.27
2017-11-16T22:06:29.697Z,25.73
2017-11-16T22:08:57.306Z,25.40
2017-11-16T22:11:26.155Z,27.77
2017-11-16T22:13:54.649Z,22.47
2017-11-16T22:16:22.315Z,25.53
2017-11-16T22:18:52.917Z,25.67
2017-11-16T22:21:20.549Z,24.13
2017-11-16T22:23:48.914Z,23.80
2017-11-16T22:26:17.636Z,23.53
2017-11-16T22:28:45.306Z,25.40
2017-11-16T22:31:12.916Z,23.70
2017-11-16T22:33:40.488Z,24.77
2017-11-16T22:36:08.854Z,26.00
2017-11-16T22:38:36.563Z,24.27
2017-11-16T22:41:04.184Z,25.40
2017-11-16T22:43:31.765Z,24.57
2017-11-16T22:46:00.095Z,25.07
2017-11-16T22:48:27.712Z,25.43
2017-11-16T22:50:55.290Z,25.20
2017-11-16T22:53:23.292Z,26.83
2017-11-16T22:55:50.847Z,25.10
2017-11-16T22:58:18.435Z,24.93
2017-11-16T23:00:46.016Z,26.40
2017-11-16T23:03:14.372Z,28.93
2017-11-16T23:05:41.961Z,27.30
2017-11-16T23:08:10.355Z,26.33
2017-11-16T23:10:38.034Z,27.97
2017-11-16T23:13:05.654Z,28.17
2017-11-16T23:15:34.006Z,28.27
2017-11-16T23:18:03.550Z,28.83
2017-11-16T23:20:31.958Z,28.00
2017-11-16T23:23:03.459Z,26.93
2017-11-16T23:25:31.055Z,27.50
2017-11-16T23:27:58.676Z,29.97
2017-11-16T23:30:26.251Z,27.77
2017-11-16T23:32:53.838Z,26.70
2017-11-16T23:35:21.419Z,29.00
2017-11-16T23:37:49.020Z,29.47
2017-11-16T23:40:16.619Z,26.30
2017-11-16T23:42:44.207Z,28.53
2017-11-16T23:45:11.785Z,28.97
2017-11-16T23:47:40.194Z,29.40
2017-11-16T23:50:07.884Z,29.73
2017-11-16T23:52:36.421Z,27.57
2017-11-16T23:55:04.000Z,26.90
2017-11-16T23:57:31.591Z,29.20
2017-11-16T23:59:59.184Z,29.03
